Ergebnisliste vom: 07.03.2015 - Radebeuler Wintercross2015 - 8,7 km

weitere Ergebnisse >>

Platz Pl.m Pl.w Stnr. Name,Vorname Verein GJ AK Akm Akw Endzeit RŘckst.
1 1   187 Riedel, Jan Dresdner SC 1898 90 M20 1   0:29:22 0:00:00
2 2   85 Barth, Tom TuS Dippldiswalde 90 M20 2   0:29:23 0:00:01
3 3   138 M├╝ller, Rene LSV Pirna 86 M20 3   0:30:06 0:00:44
4 4   212 Eschler, Rene SV Elbland Coswig Mei├čen 75 M40 1   0:31:02 0:01:40
5 5   214 Lindig, Thomas SV Elbland Coswig Mei├čen 70 M45 1   0:31:14 0:01:52
6 6   268 Helbig, Thomas Forstsportfreunde Dresden 79 M35 1   0:31:23 0:02:01
7 7   276 Gertel, Christian Laufgruppe Dresden 74 M40 2   0:32:08 0:02:46
8 8   327 G├Âhler, Niels SV Elbland Coswig Mei├čen 76 M35 2   0:32:20 0:02:58
9 9   312 Fa├čbender, Jan SV Nikas Heidelberg 88 M20 4   0:33:07 0:03:45
10 10   16 Sittner, Falk Lauff├Ârdergruppe Gruna 81 M30 1   0:33:27 0:04:05
11 11   208 Vogel, Steffen Dresden 75 M40 3   0:33:37 0:04:15
12 12   228 Lehnert, Sven Laufgruppe Dresden 70 M45 2   0:33:46 0:04:24
13 13   257 Pohl, Roland Weinb├Âhla 66 M45 3   0:33:59 0:04:37
14 14   32 Sch├╝tzka, Georg LG TUS Weinb├Âhla 86 M20 5   0:34:09 0:04:47
15 15   180 Berndt, Thomas SSV Planeta Radebeul 68 M45 4   0:34:22 0:05:00
16 16   236 W├Ąhrisch, Tilo Dresden 76 M35 3   0:34:33 0:05:11
17 17   335 Gast, Toni SV Stauchitz 47 76 M35 4   0:34:35 0:05:13
18 18   293 Lehmann, J├Ârg SV Elbland Coswig Mei├čen 66 M45 5   0:34:41 0:05:19
19 19   83 Axt, Torsten Freiberger Polizeisportverein 75 M40 4   0:34:48 0:05:26
20 20   216 Hain, Hagen Coswig 74 M40 5   0:35:26 0:06:04
21 21   295 Wolf, Daniel LG Priestewitz 74 M40 6   0:35:29 0:06:07
22 22   242 Zentsch, Uwe Citylaufverein Dresden 62 M50 1   0:35:37 0:06:15
23 23   24 J├╝rries, Frank Dresdner Durchl├Ąufer/streakrunner 69 M45 6   0:35:49 0:06:27
24 24   315 Eibner, Steve Wasserwacht Dresden Land 87 M20 6   0:35:51 0:06:29
25 25   14 Gl├Âckner, Silvio TV Dresden 79 M35 5   0:36:01 0:06:39
26 26   278 Stepanek, Rico Dresden 80 M35 6   0:36:07 0:06:45
27 27   329 Czayka, Thomas SC Riesa Triathlon 71 M40 7   0:36:09 0:06:47
28 28   68 Peschel, Marcel Dresdner Durchl├Ąufer 83 M30 2   0:36:12 0:06:50
29 29   82 Zybell, Karsten Freiberger Polizeisportverein 86 M20 7   0:36:15 0:06:53
30 30   116 Voolaid, Veiko Volkssport 83 M30 3   0:36:20 0:06:58
31 31   207 Hoffmann, Ron Rabenau 84 M30 4   0:36:26 0:07:04
32 32   131 Egerer, Thomas Dresdner Durchl├Ąufer 77 M35 7   0:36:29 0:07:07
33 33   277 Eggers, Olaf Dresden 70 M45 7   0:36:32 0:07:10
33 33   320 Wilde, Andreas TV Valtenberg 58 M55+ 1   0:36:32 0:07:10
35 35   301 Umlauf, Steffen SV Hellerau 61 M50 2   0:36:43 0:07:21
36 36   130 Schwan, Ralph atsv kirchseeon (by) 65 M50 3   0:36:56 0:07:34
37 37   310 Schliwa, Sebastian Team Tempus/SV Elbland Coswig Mei├čen 83 M30 5   0:37:17 0:07:55
38 38   113 Siegel, Alexander Dresdner Durchl├Ąufer 59 M55+ 2   0:37:31 0:08:09
39 39   114 Kleider, Bernd TSV Dresden 57 M55+ 3   0:37:41 0:08:19
40 40   314 Eibner, Reno Radebeul Lindenau 62 M50 4   0:37:50 0:08:28
41 41   67 Wartenberg, Jonas USV TU Dresden 91 M20 8   0:37:51 0:08:29
42 42   322 Beeg, Markus Mei├čen 79 M35 8   0:37:55 0:08:33
43 43   89 Dewitz, Heiko ESV Lok D├Âbeln 64 M50 5   0:37:57 0:08:35
44 44   101 Buckwitz, Frank Team Pinki & Brain 81 M30 6   0:38:01 0:08:39
45 45   296 Mende, Thomas Citylaufverein Dresden 67 M45 8   0:38:08 0:08:46
45 45   338 Kriebitzsch, Thomas SV Robotron 81 M30 7   0:38:08 0:08:46
47 47   98 Pospisil, Joachim Laufgruppe Nossen 58 M55+ 4   0:38:11 0:08:49
48 48   288 Wenzel, Jan Dresden 81 M30 8   0:38:12 0:08:50
49 49   99 Matz, J├╝rgen TSV Dresden 58 M55+ 5   0:38:20 0:08:58
50 50   350 Ehrlich, Dirk SC Riesa 65 M50 6   0:38:47 0:09:25
51 51   47 G├Âtzelt, Jan SV Hellerau 71 M40 8   0:38:55 0:09:33
52 52   331 Bormann, Markus LWV 05 Bad Liebenwerda 80 M35 9   0:38:59 0:09:37
53 53   352 Mutzke, Thomas Wei├čig a. Rasch├╝tz 75 M40 9   0:39:15 0:09:53
54 54   341 Ledermann, Andreas Dresden Klotzsche 60 M55+ 6   0:39:16 0:09:54
55 55   8 Fasold, Rene LG R├Âdern 79 M35 10   0:39:24 0:10:02
56 56   265 Otto, Andreas SV Elbland Coswig Mei├čen 76 M35 11   0:39:31 0:10:09
57 57   1 Kaubisch, Frank Hirschfelde/ Team Erdinger alkoholfrei 67 M45 9   0:39:34 0:10:12
58 58   226 Franke, Rene Radebeul 76 M35 12   0:39:38 0:10:16
59 59   330 Ruhland, J├Ârg Team Sport Ruscher 68 M45 10   0:39:44 0:10:22
60 60   334 Kuge, Jens Mei├čen 70 M45 11   0:39:45 0:10:23
61 61   345 B├Âttger, Daniel N├╝nchritz 80 M35 13   0:40:00 0:10:38
62 62   107 Kabus, Andreas TV Dresden 73 M40 10   0:40:01 0:10:39
63 63   336 G├Ąbler, Andreas LRC Mittelsachsen Oschatz 79 M35 14   0:40:02 0:10:40
64 64   348 Henschke, Martin Alte Garde Weinb├Âhla 80 M35 15   0:40:10 0:10:48
65 65   309 Friedrich, Rolf Coswig 70 M45 12   0:40:11 0:10:49
66 66   307 Kn├Âfel, Detlef Mei├čen 63 M50 7   0:40:13 0:10:51
67 67   259 Schubert, Bernd Radebeul 58 M55+ 7   0:40:14 0:10:52
68 68   298 Forberger, Erik D├Âbeln 79 M35 16   0:40:28 0:11:06
69 69   287 Bretfeld, Jan Dresden 85 M30 9   0:40:32 0:11:10
70 70   270 Hose, Vincent Radebeul 84 M30 10   0:40:43 0:11:21
71 71   258 Joestel, Klaus Niederau 62 M50 8   0:40:45 0:11:23
72 72   91 Freitag, Steffen Volkssport 68 M45 13   0:41:18 0:11:56
73 73   168 T├Âwe, Henry VG 68 M45 14   0:41:19 0:11:57
74 74   183 Neumann, Steffen Dresden 69 M45 15   0:41:32 0:12:10
75 75   35 Spannaus, Thomas Team-Erdinger-Alkoholfrei 72 M40 11   0:41:38 0:12:16
76 76   20 Fr├Âmmel, Andreas Dresden 58 M55+ 8   0:41:46 0:12:24
77 77   245 Vogel, Dieter Laufgruppe Nossen 65 M50 9   0:42:47 0:13:25
78 78   170 G├╝nther, Thomas SSV Planeta Radebeul 70 M45 16   0:42:57 0:13:35
79 79   103 Sarfert, Uwe Dresdner Lauftreff Linde 79 58 M55+ 9   0:42:59 0:13:37
79 79   237 B├Ąnsch, Gerd Laufgruppe Nossen 73 M40 12   0:42:59 0:13:37
81 81   260 Machill, Thomas Coswig 62 M50 10   0:43:01 0:13:39
82 82   299 Diehlmann, Frank Dresden 64 M50 11   0:43:02 0:13:40
83 83   326 Krille, Steffen SV Wildenhain 63 M50 12   0:43:15 0:13:53
84 84   249 Jakat, Gerd Eestly Husky Race 63 M50 13   0:43:23 0:14:01
85 85   162 Lucius, Paul Motor Freital 95 M20 9   0:43:25 0:14:03
86 86   126 Bastian, Uwe SSV Planeta Radebeul 68 M45 17   0:43:26 0:14:04
87 87   318 Richter, Florian SV Motor Gro├čenhain 94 M20 10   0:43:47 0:14:25
88 88   71 Pitzschel, Olaf Dresden 63 M50 14   0:44:06 0:14:44
89 89   297 M├╝ller, Uwe Leisnig 70 M45 18   0:44:16 0:14:54
90 90   244 K├Ârbs, Dirk Laufgruppe Nossen 65 M50 15   0:44:23 0:15:01
91 91   247 Thieme, Rene Ebersbach 72 M40 13   0:44:37 0:15:15
92 92   86 Goldbach, Tom FV Gr├Âditz 72 M40 14   0:45:30 0:16:08
93 93   333 Feder, Hartmut Meissen 60 M55+ 10   0:45:54 0:16:32
94 94   21 Metz, Ralph Heidenau 68 M45 19   0:46:58 0:17:36
95 95   272 Wick, Peter Weinb├Âhla 59 M55+ 11   0:47:45 0:18:23
96 96   339 Grimm, Frank Mei├čen 76 M35 17   0:48:20 0:18:58
97 97   351 Raschke, Alexander Gro├čenhain 87 M20 11   0:49:41 0:20:19
98 98   311 Slany, Bernd Mei├čen 57 M55+ 12   0:51:55 0:22:33
99 99   273 Eisemuth, Sandro SV Lampertswalde 81 M30 11   0:52:09 0:22:47
(c) 1990-2020 Blue Wonder Sport Promotion - Andreas Burow - Zeitnahme & Auswertung - www.Triathlon-Service.de